Time;durP1;ratioP1;P1;durP2;ratioP2;P2;SDS_P1;SDS_P2;PMS_P1;PMS_P2;Temp;Humidity;BMP_temperature;BMP_pressure;BME280_temperature;BME280_humidity;BME280_pressure;Samples;Min_cycle;Max_cycle;Signal;HPM_P1;HPM_P2
2022/12/19 00:01:17;;;;;;;21.20;14.30;;;3.70;97.00;;;3.49;62.47;96697.25;5080505;28;20486;-57
2022/12/19 00:03:45;;;;;;;26.57;14.10;;;3.70;97.40;;;3.50;61.49;96696.34;5083021;28;20464;-57
2022/12/19 00:06:12;;;;;;;29.43;13.90;;;3.70;97.00;;;3.50;62.06;96693.72;5078958;28;20477;-59
2022/12/19 00:08:41;;;;;;;24.30;13.30;;;3.70;97.30;;;3.50;61.63;96684.19;5086042;28;20454;-56
2022/12/19 00:11:09;;;;;;;18.93;12.83;;;3.70;97.20;;;3.51;61.83;96693.69;5086689;28;21108;-56
2022/12/19 00:13:37;;;;;;;22.53;13.70;;;3.70;97.20;;;3.50;61.85;96698.94;5079220;28;20461;-55
2022/12/19 00:16:07;;;;;;;20.77;12.10;;;3.80;97.40;;;3.51;61.78;96705.84;5083530;28;20489;-60
2022/12/19 00:18:35;;;;;;;23.87;12.13;;;3.70;97.20;;;3.53;61.62;96704.91;5081712;28;20455;-59
2022/12/19 00:21:03;;;;;;;21.17;12.97;;;3.80;97.40;;;3.53;62.07;96706.63;5083696;28;20469;-57
2022/12/19 00:23:33;;;;;;;30.13;14.33;;;3.80;97.40;;;3.52;61.61;96699.75;5084776;28;20459;-63
2022/12/19 00:26:09;;;;;;;22.53;13.80;;;3.80;96.80;;;3.51;62.15;96706.69;5082664;28;21053;-60
2022/12/19 00:28:36;;;;;;;30.37;14.60;;;3.80;97.20;;;3.50;62.11;96701.53;5080340;28;20529;-58
2022/12/19 00:31:06;;;;;;;25.00;13.60;;;3.70;97.10;;;3.50;61.62;96710.22;5087184;28;20849;-56
2022/12/19 00:33:33;;;;;;;22.63;13.17;;;3.80;97.30;;;3.50;61.50;96725.81;5080897;28;20446;-56
2022/12/19 00:36:01;;;;;;;20.10;11.90;;;3.70;97.40;;;3.51;61.90;96719.69;5082787;28;20474;-56
2022/12/19 00:38:28;;;;;;;24.37;13.33;;;3.70;97.40;;;3.51;62.10;96709.28;5077646;28;20446;-59
2022/12/19 00:40:55;;;;;;;19.50;11.93;;;3.80;97.50;;;3.51;61.50;96713.66;5076608;28;20503;-56
2022/12/19 00:43:22;;;;;;;27.77;14.13;;;3.70;97.10;;;3.49;62.32;96718.91;5082757;28;20450;-58
2022/12/19 00:45:50;;;;;;;20.87;12.47;;;3.80;97.30;;;3.48;61.48;96719.78;5077066;28;20478;-59
2022/12/19 00:48:18;;;;;;;23.53;12.53;;;3.70;97.20;;;3.46;62.33;96712.97;5078527;28;20481;-59
2022/12/19 00:50:46;;;;;;;23.43;12.93;;;3.70;97.30;;;3.46;62.51;96721.59;5084308;28;20545;-56
2022/12/19 00:53:13;;;;;;;23.97;14.00;;;3.70;97.40;;;3.47;62.07;96715.50;5079520;28;20453;-55
2022/12/19 00:55:40;;;;;;;24.87;13.00;;;3.70;97.40;;;3.48;62.67;96716.34;5082238;28;20592;-54
2022/12/19 00:58:07;;;;;;;22.97;12.57;;;3.70;97.40;;;3.49;62.12;96728.47;5082528;28;20914;-56
2022/12/19 01:00:34;;;;;;;22.67;12.97;;;3.70;97.20;;;3.50;62.36;96730.16;5078600;28;20528;-54
2022/12/19 01:03:02;;;;;;;22.57;13.83;;;3.70;97.40;;;3.49;62.27;96718.06;5082373;28;20867;-59
2022/12/19 01:05:30;;;;;;;20.07;12.07;;;3.80;97.50;;;3.50;62.05;96724.94;5080399;28;20478;-59
2022/12/19 01:07:58;;;;;;;24.60;13.60;;;3.80;97.50;;;3.50;62.35;96724.94;5082354;28;20458;-58
2022/12/19 01:10:25;;;;;;;23.40;12.90;;;3.70;97.40;;;3.50;61.70;96731.03;5081644;28;20466;-59
2022/12/19 01:12:51;;;;;;;22.90;13.57;;;3.80;97.20;;;3.49;61.51;96725.88;5080841;28;20454;-58
2022/12/19 01:15:20;;;;;;;22.70;13.03;;;3.80;97.30;;;3.49;61.61;96729.31;5074802;28;20532;-56
2022/12/19 01:17:47;;;;;;;22.77;12.80;;;3.70;97.10;;;3.50;62.43;96727.56;5081346;28;20564;-61
2022/12/19 01:20:17;;;;;;;23.97;15.00;;;3.70;97.40;;;3.50;61.44;96731.03;5083344;28;20994;-60
2022/12/19 01:22:46;;;;;;;23.50;13.60;;;3.80;97.00;;;3.48;61.45;96730.19;5081829;28;20449;-56
2022/12/19 01:25:13;;;;;;;25.73;14.00;;;3.70;97.10;;;3.46;61.99;96739.81;5080897;28;20474;-60
2022/12/19 01:27:40;;;;;;;25.63;14.37;;;3.70;97.30;;;3.44;61.62;96731.22;5077692;28;20451;-59
2022/12/19 01:30:09;;;;;;;22.53;13.40;;;3.70;97.20;;;3.44;61.73;96740.75;5080854;28;20474;-59
2022/12/19 01:32:37;;;;;;;24.97;13.40;;;3.70;97.30;;;3.40;61.38;96734.81;5078070;28;20454;-59
2022/12/19 01:35:05;;;;;;;23.67;13.23;;;3.70;97.00;;;3.36;60.67;96730.59;5081324;28;20498;-59
2022/12/19 01:37:32;;;;;;;21.13;12.40;;;3.60;96.70;;;3.33;61.33;96733.28;5080232;28;20458;-59
2022/12/19 01:40:01;;;;;;;20.83;12.97;;;3.60;97.00;;;3.30;62.08;96733.41;5081878;28;20482;-56
2022/12/19 01:42:34;;;;;;;21.67;13.00;;;3.60;97.00;;;3.28;62.43;96741.25;5079494;28;20883;-60
2022/12/19 01:45:27;;;;;;;20.43;12.67;;;3.50;97.30;;;3.26;62.03;96724.84;5086439;28;20571;-54
2022/12/19 01:47:58;;;;;;;28.17;14.40;;;3.50;97.20;;;3.26;62.31;96731.81;5085308;28;20808;-56
2022/12/19 01:50:28;;;;;;;26.17;14.20;;;3.50;97.40;;;3.23;62.18;96718.00;5080167;28;20471;-56
2022/12/19 01:52:56;;;;;;;19.27;12.40;;;3.50;97.20;;;3.23;61.73;96725.78;5085444;28;20511;-55
2022/12/19 01:55:24;;;;;;;26.53;13.30;;;3.50;97.40;;;3.22;62.58;96726.72;5079011;28;20505;-57
2022/12/19 01:57:52;;;;;;;24.60;13.47;;;3.50;97.40;;;3.21;61.81;96719.81;5085323;28;20526;-55
2022/12/19 02:00:19;;;;;;;21.37;12.03;;;3.50;97.40;;;3.21;62.79;96719.81;5080001;28;20481;-55
2022/12/19 02:02:50;;;;;;;26.13;13.10;;;3.50;97.40;;;3.23;62.14;96720.59;5088406;28;20484;-56
2022/12/19 02:05:17;;;;;;;29.43;13.97;;;3.50;97.40;;;3.23;62.68;96719.75;5077201;28;20474;-57
2022/12/19 02:07:44;;;;;;;25.67;13.03;;;3.50;97.50;;;3.22;62.49;96721.50;5083367;28;20515;-59
2022/12/19 02:10:12;;;;;;;23.77;14.20;;;3.50;97.40;;;3.23;62.12;96720.59;5084139;28;20553;-58
2022/12/19 02:12:42;;;;;;;24.50;13.80;;;3.50;97.40;;;3.23;62.91;96715.38;5078900;28;20458;-58
2022/12/19 02:15:10;;;;;;;21.17;13.53;;;3.50;97.40;;;3.25;62.11;96714.50;5082220;28;21173;-56
2022/12/19 02:17:43;;;;;;;23.77;14.00;;;3.50;97.40;;;3.25;62.02;96709.31;5081726;28;20976;-58
2022/12/19 02:20:53;;;;;;;20.33;12.90;;;3.50;97.60;;;3.26;62.50;96724.00;5076847;28;20470;-60
2022/12/19 02:24:15;;;;;;;23.80;13.93;;;3.50;97.60;;;3.26;62.69;96727.47;5078536;28;20443;-54
2022/12/19 02:27:03;;;;;;;23.17;14.00;;;3.50;97.70;;;3.27;62.59;96731.75;5065056;28;20453;-54
2022/12/19 02:30:05;;;;;;;23.47;13.50;;;3.50;97.60;;;3.26;62.09;96734.41;5074906;28;20714;-55
2022/12/19 02:32:40;;;;;;;20.40;12.40;;;3.50;97.50;;;3.27;62.69;96738.69;5071554;28;20511;-57
2022/12/19 02:35:11;;;;;;;24.93;13.40;;;3.50;97.80;;;3.26;61.67;96739.63;5079395;28;20490;-56
2022/12/19 02:37:42;;;;;;;27.00;13.77;;;3.50;97.30;;;3.24;62.23;96739.66;5077015;28;20854;-59
2022/12/19 02:40:13;;;;;;;23.07;13.00;;;3.50;97.40;;;3.21;61.56;96732.81;5080577;28;20466;-58
2022/12/19 02:42:43;;;;;;;21.97;12.63;;;3.50;97.30;;;3.20;61.71;96733.69;5078893;28;20445;-58
2022/12/19 02:45:11;;;;;;;22.67;12.90;;;3.50;97.30;;;3.18;62.24;96732.91;5076741;28;20467;-58
2022/12/19 02:47:40;;;;;;;25.27;13.33;;;3.40;97.30;;;3.19;62.46;96726.81;5080804;28;20928;-54
2022/12/19 02:50:08;;;;;;;26.13;14.03;;;3.40;97.30;;;3.16;61.66;96726.91;5077396;28;20712;-56
2022/12/19 02:52:47;;;;;;;25.53;13.30;;;3.50;97.40;;;3.17;62.11;96718.19;5080021;28;20758;-58
2022/12/19 02:55:20;;;;;;;24.60;14.00;;;3.40;97.10;;;3.15;61.66;96720.00;5075359;28;20528;-58
2022/12/19 02:58:29;;;;;;;22.50;13.50;;;3.40;97.30;;;3.10;62.07;96719.31;5079559;28;21146;-56
2022/12/19 03:01:00;;;;;;;26.77;13.67;;;3.40;97.30;;;3.12;61.81;96712.28;5078581;28;20466;-56
2022/12/19 03:03:35;;;;;;;25.00;13.53;;;3.40;97.30;;;3.10;61.64;96700.22;5079607;28;20575;-57
2022/12/19 03:06:05;;;;;;;25.23;13.30;;;3.40;97.30;;;3.10;61.78;96700.22;5084058;28;20571;-54
2022/12/19 03:08:38;;;;;;;25.03;13.17;;;3.30;97.30;;;3.08;62.04;96713.28;5080610;28;20963;-60
2022/12/19 03:11:07;;;;;;;22.90;13.40;;;3.30;97.30;;;3.04;62.14;96699.53;5076695;28;20466;-58
2022/12/19 03:13:35;;;;;;;19.23;12.50;;;3.30;97.30;;;3.01;61.67;96706.59;5081980;28;20827;-55
2022/12/19 03:16:03;;;;;;;24.90;13.23;;;3.30;97.30;;;2.99;62.32;96709.25;5076023;28;20502;-58
2022/12/19 03:18:31;;;;;;;21.03;12.73;;;3.30;97.30;;;2.97;62.01;96704.97;5084709;28;20494;-58
2022/12/19 03:21:04;;;;;;;19.93;12.97;;;3.30;97.30;;;2.96;61.97;96718.84;5082670;28;20830;-59
2022/12/19 03:23:32;;;;;;;26.27;11.93;;;3.20;97.20;;;2.94;61.91;96715.47;5081240;28;20967;-56
2022/12/19 03:26:02;;;;;;;22.67;13.30;;;3.20;97.20;;;2.90;61.83;96722.53;5080058;28;20998;-55
2022/12/19 03:28:34;;;;;;;21.90;12.57;;;3.20;97.20;;;2.88;62.04;96732.09;5083700;28;20442;-56
2022/12/19 03:31:01;;;;;;;22.97;12.00;;;3.20;97.20;;;2.84;61.90;96723.53;5080233;28;20463;-59
2022/12/19 03:33:32;;;;;;;28.73;12.87;;;3.10;97.20;;;2.81;61.77;96734.03;5083833;28;20446;-57
2022/12/19 03:35:59;;;;;;;24.63;12.80;;;3.10;97.20;;;2.81;62.66;96730.59;5090456;28;20553;-59
2022/12/19 03:38:27;;;;;;;24.77;13.87;;;3.10;97.20;;;2.79;61.58;96732.38;5089105;28;20465;-58
2022/12/19 03:40:54;;;;;;;23.17;13.73;;;3.10;97.20;;;2.76;62.80;96735.94;5083342;28;20477;-57
2022/12/19 03:43:20;;;;;;;23.70;13.57;;;3.00;97.20;;;2.75;62.23;96734.22;5091459;28;20583;-56
2022/12/19 03:45:53;;;;;;;20.53;13.30;;;3.00;97.20;;;2.71;62.35;96730.00;5079843;28;20481;-60
2022/12/19 03:48:24;;;;;;;23.40;13.23;;;3.00;97.40;;;2.69;62.57;96737.84;5085564;28;20515;-59
2022/12/19 03:51:01;;;;;;;23.70;13.90;;;3.00;97.20;;;2.67;62.61;96742.25;5081959;28;20457;-57
2022/12/19 03:53:41;;;;;;;30.47;15.17;;;3.00;97.30;;;2.63;62.33;96738.06;5082937;28;20461;-59
2022/12/19 03:56:13;;;;;;;22.50;12.63;;;2.90;97.30;;;2.62;63.11;96748.47;5082535;28;20525;-56
2022/12/19 03:58:42;;;;;;;28.53;13.53;;;2.90;97.50;;;2.60;62.17;96750.25;5083947;28;20455;-59
2022/12/19 04:01:09;;;;;;;22.60;13.00;;;2.90;97.60;;;2.57;61.37;96748.63;5084018;28;20477;-57
2022/12/19 04:03:37;;;;;;;25.87;13.50;;;2.90;97.10;;;2.55;62.14;96749.56;5082849;28;20466;-59
2022/12/19 04:06:05;;;;;;;33.53;13.63;;;2.90;97.40;;;2.54;62.66;96763.41;5082548;28;21071;-60
2022/12/19 04:08:33;;;;;;;31.70;13.90;;;2.80;97.50;;;2.52;61.78;96760.88;5082365;28;20515;-59
2022/12/19 04:11:04;;;;;;;26.07;14.70;;;2.80;97.50;;;2.51;61.83;96760.03;5083946;28;20574;-59
2022/12/19 04:13:36;;;;;;;21.77;12.97;;;2.80;97.40;;;2.51;62.55;96759.19;5087416;28;20468;-57
2022/12/19 04:16:10;;;;;;;26.90;14.47;;;2.80;97.50;;;2.51;62.61;96765.22;5081918;28;20490;-59
2022/12/19 04:18:37;;;;;;;22.17;13.20;;;2.80;97.50;;;2.50;62.08;96762.66;5084888;28;20449;-58
2022/12/19 04:21:11;;;;;;;27.23;14.37;;;2.80;97.50;;;2.49;62.60;96771.34;5084947;28;20540;-58
2022/12/19 04:23:40;;;;;;;26.60;13.63;;;2.80;97.20;;;2.46;62.51;96772.31;5083662;28;20454;-56
2022/12/19 04:26:07;;;;;;;26.57;13.70;;;2.80;97.50;;;2.44;62.65;96762.84;5079044;28;20490;-58
2022/12/19 04:28:38;;;;;;;26.63;14.20;;;2.70;97.50;;;2.43;62.55;96767.19;5084252;28;20450;-59
2022/12/19 04:31:05;;;;;;;24.27;12.97;;;2.70;97.50;;;2.43;62.22;96761.13;5081080;28;20554;-55
2022/12/19 04:33:32;;;;;;;25.87;13.97;;;2.70;97.60;;;2.42;62.98;96762.03;5088915;28;20473;-56
2022/12/19 04:36:00;;;;;;;39.33;15.50;;;2.70;97.70;;;2.43;62.41;96767.19;5084833;28;20835;-59
2022/12/19 04:38:29;;;;;;;23.67;13.53;;;2.70;97.70;;;2.43;62.90;96767.19;5083560;28;20461;-60
2022/12/19 04:40:56;;;;;;;27.23;13.90;;;2.70;97.60;;;2.44;63.04;96771.47;5089829;28;20885;-60
2022/12/19 04:43:23;;;;;;;25.47;13.73;;;2.70;97.70;;;2.43;62.60;96772.38;5085844;28;20544;-57
2022/12/19 04:45:51;;;;;;;26.60;14.97;;;2.70;97.60;;;2.44;63.15;96771.47;5080811;28;20909;-58
2022/12/19 04:48:18;;;;;;;24.40;14.00;;;2.70;97.70;;;2.46;62.07;96771.44;5082898;28;20446;-60
2022/12/19 04:50:45;;;;;;;25.20;13.73;;;2.80;97.60;;;2.47;61.74;96780.94;5080626;28;20482;-60
2022/12/19 04:53:12;;;;;;;24.97;12.80;;;2.70;97.40;;;2.48;62.58;96780.06;5081965;28;20454;-60
2022/12/19 04:55:41;;;;;;;26.97;13.37;;;2.70;97.40;;;2.47;62.12;96779.19;5079745;28;20493;-60
2022/12/19 04:58:09;;;;;;;26.03;14.20;;;2.70;97.20;;;2.46;61.73;96782.69;5079061;28;20458;-56
2022/12/19 05:00:36;;;;;;;27.23;14.20;;;2.70;97.30;;;2.46;61.90;96777.50;5080761;28;20479;-60
2022/12/19 05:03:03;;;;;;;25.70;14.20;;;2.70;97.40;;;2.48;62.19;96783.50;5083162;28;20465;-59
2022/12/19 05:05:31;;;;;;;25.53;14.63;;;2.70;97.60;;;2.47;62.36;96784.38;5085116;28;20636;-54
2022/12/19 05:07:58;;;;;;;23.93;13.97;;;2.70;97.40;;;2.47;62.19;96784.38;5079220;28;20465;-60
2022/12/19 05:10:25;;;;;;;27.30;13.90;;;2.80;97.30;;;2.47;61.91;96783.53;5078855;28;20470;-60
2022/12/19 05:12:55;;;;;;;57.43;33.90;;;2.80;97.60;;;2.47;63.00;96776.56;5078409;28;20465;-58
2022/12/19 05:15:23;;;;;;;26.07;14.70;;;2.80;97.50;;;2.44;62.14;96776.66;5081735;28;21053;-56
2022/12/19 05:17:50;;;;;;;27.00;13.63;;;2.80;97.40;;;2.46;62.82;96787.00;5078963;28;20501;-55
2022/12/19 05:20:18;;;;;;;28.03;14.07;;;2.80;97.50;;;2.46;62.83;96784.41;5079426;28;20469;-57
2022/12/19 05:22:45;;;;;;;23.53;13.40;;;2.80;97.50;;;2.45;62.61;96790.53;5080190;28;20879;-55
2022/12/19 05:25:12;;;;;;;26.10;14.10;;;2.70;97.30;;;2.44;62.88;96781.84;5078102;28;20475;-54
2022/12/19 05:27:39;;;;;;;26.90;14.27;;;2.70;97.40;;;2.44;62.41;96784.47;5078709;28;20465;-56
2022/12/19 05:30:10;;;;;;;27.30;13.30;;;2.70;97.50;;;2.43;62.00;96787.97;5081427;28;20519;-58
2022/12/19 05:32:37;;;;;;;27.87;14.83;;;2.70;97.40;;;2.42;62.82;96791.44;5082707;28;20551;-55
2022/12/19 05:35:06;;;;;;;21.47;13.17;;;2.70;97.50;;;2.43;62.75;96793.16;5082109;28;20485;-60
2022/12/19 05:37:33;;;;;;;29.33;14.73;;;2.70;97.60;;;2.43;61.92;96802.69;5084009;28;20454;-56
2022/12/19 05:40:01;;;;;;;20.33;12.77;;;2.70;97.60;;;2.44;63.24;96799.19;5084249;28;20474;-56
2022/12/19 05:42:28;;;;;;;26.23;12.83;;;2.70;97.70;;;2.45;62.91;96795.72;5080861;28;20474;-55
2022/12/19 05:44:55;;;;;;;29.83;14.17;;;2.70;97.50;;;2.46;62.51;96790.47;5079677;28;20474;-57
2022/12/19 05:47:24;;;;;;;25.03;14.53;;;2.70;97.50;;;2.48;62.47;96791.28;5084526;28;20457;-56
2022/12/19 05:49:51;;;;;;;23.70;13.13;;;2.80;97.50;;;2.47;61.94;96797.34;5081640;28;20470;-57
2022/12/19 05:52:19;;;;;;;28.70;15.60;;;2.80;97.60;;;2.48;62.51;96791.28;5077996;28;20447;-58
2022/12/19 05:54:46;;;;;;;25.57;13.40;;;2.80;97.60;;;2.48;62.01;96796.47;5080074;28;20506;-58
2022/12/19 05:57:13;;;;;;;24.17;14.13;;;2.80;97.60;;;2.48;62.72;96795.63;5074190;28;20573;-54
2022/12/19 05:59:41;;;;;;;27.83;13.63;;;2.80;97.60;;;2.48;63.03;96790.44;5080931;28;21021;-55
2022/12/19 06:02:08;;;;;;;30.93;16.53;;;2.80;97.60;;;2.48;62.19;96790.44;5079757;28;20450;-58
2022/12/19 06:04:36;;;;;;;30.73;13.90;;;2.80;97.60;;;2.49;63.00;96797.31;5080030;28;21043;-55
2022/12/19 06:07:04;;;;;;;25.20;14.63;;;2.80;97.50;;;2.49;62.90;96798.19;5078759;28;20451;-61
2022/12/19 06:09:31;;;;;;;28.13;13.70;;;2.80;97.50;;;2.49;62.31;96795.59;5080568;28;21029;-54
2022/12/19 06:11:59;;;;;;;27.70;14.70;;;2.80;97.40;;;2.50;62.23;96799.88;5077468;28;20888;-55
2022/12/19 06:14:26;;;;;;;27.53;14.87;;;2.80;97.60;;;2.50;63.16;96799.88;5077588;28;20474;-57
2022/12/19 06:16:53;;;;;;;25.17;14.47;;;2.80;97.70;;;2.54;62.60;96804.97;5078031;28;20496;-56
2022/12/19 06:19:20;;;;;;;32.60;14.30;;;2.80;97.70;;;2.56;62.61;96806.66;5084084;28;20454;-56
2022/12/19 06:21:49;;;;;;;29.53;14.87;;;2.80;97.80;;;2.60;62.96;96807.41;5081396;28;20921;-62
2022/12/19 06:24:17;;;;;;;27.37;14.67;;;2.90;97.90;;;2.64;62.70;96811.63;5080640;28;20515;-56
2022/12/19 06:26:45;;;;;;;25.23;13.33;;;2.90;97.80;;;2.66;62.16;96809.81;5079316;28;20815;-59
2022/12/19 06:29:12;;;;;;;25.03;13.80;;;2.90;97.80;;;2.72;61.84;96811.41;5078763;28;20527;-56
2022/12/19 06:31:39;;;;;;;26.00;13.47;;;3.00;97.70;;;2.76;62.19;96811.28;5078193;28;20486;-59
2022/12/19 06:34:07;;;;;;;24.60;13.83;;;3.00;97.30;;;2.79;62.55;96813.78;5078379;28;20610;-56
2022/12/19 06:36:34;;;;;;;34.97;13.47;;;3.10;97.60;;;2.83;62.75;96815.38;5081927;28;20601;-58
2022/12/19 06:39:03;;;;;;;25.23;13.53;;;3.10;97.40;;;2.87;61.64;96818.75;5082692;28;21046;-59
2022/12/19 06:44:16;;;;;;;20.40;11.77;;;3.20;97.60;;;2.95;62.33;96823.75;5081273;28;20410;-58
2022/12/19 06:46:43;;;;;;;17.97;12.10;;;3.20;97.40;;;2.98;62.54;96823.66;5079050;28;21074;-55
2022/12/19 06:49:11;;;;;;;26.40;13.47;;;3.20;97.30;;;3.01;61.98;96827.00;5081342;28;20999;-58
2022/12/19 06:51:39;;;;;;;26.93;13.97;;;3.30;97.40;;;3.07;62.27;96838.09;5084070;28;20980;-57
2022/12/19 06:54:07;;;;;;;29.97;13.77;;;3.30;97.40;;;3.10;61.52;96844.09;5082051;28;20460;-57
2022/12/19 06:56:35;;;;;;;33.40;14.43;;;3.40;97.30;;;3.14;61.32;96842.25;5081925;28;20568;-58
2022/12/19 06:59:02;;;;;;;24.27;11.93;;;3.40;97.30;;;3.13;60.69;96846.59;5080697;28;20441;-57
2022/12/19 07:01:37;;;;;;;22.50;12.50;;;3.40;96.30;;;3.12;60.96;96849.25;5082404;28;20454;-56
2022/12/19 07:04:05;;;;;;;23.23;12.07;;;3.40;96.80;;;3.15;62.06;96849.16;5083371;28;20453;-58
2022/12/19 07:06:32;;;;;;;22.43;13.17;;;3.40;97.80;;;3.21;61.56;96855.00;5081664;28;20450;-55
2022/12/19 07:08:59;;;;;;;25.67;13.20;;;3.50;97.40;;;3.27;62.31;96858.31;5083905;28;20863;-56
2022/12/19 07:11:28;;;;;;;22.90;12.17;;;3.50;97.60;;;3.35;63.20;96856.34;5080847;28;20470;-59
2022/12/19 07:13:56;;;;;;;31.47;14.53;;;3.60;98.40;;;3.45;62.22;96860.34;5083937;28;20464;-56
2022/12/19 07:16:24;;;;;;;19.33;11.60;;;3.70;97.80;;;3.52;61.63;96853.25;5081322;28;20494;-59
2022/12/19 07:18:51;;;;;;;23.27;13.60;;;3.70;97.40;;;3.56;61.79;96857.44;5083962;28;20477;-56
2022/12/19 07:21:18;;;;;;;31.27;16.40;;;3.80;97.50;;;3.56;61.43;96860.91;5082227;28;20467;-58
2022/12/19 07:23:46;;;;;;;26.27;15.30;;;3.80;96.80;;;3.58;60.47;96863.47;5084977;28;21023;-58
2022/12/19 07:26:13;;;;;;;29.07;16.40;;;3.80;96.60;;;3.59;61.29;96865.13;5081128;28;20999;-56
2022/12/19 07:28:43;;;;;;;31.67;16.40;;;3.80;96.70;;;3.59;60.74;96863.41;5084874;28;20461;-55
2022/12/19 07:31:10;;;;;;;24.80;15.20;;;3.80;96.80;;;3.59;59.93;96871.22;5076504;28;20573;-56
2022/12/19 07:33:38;;;;;;;30.13;15.57;;;3.80;96.00;;;3.51;59.33;96873.19;5081375;28;20454;-59
2022/12/19 07:36:06;;;;;;;32.73;15.40;;;3.80;95.10;;;3.46;60.59;96877.69;5080676;28;20805;-56
2022/12/19 07:38:33;;;;;;;35.83;15.60;;;3.80;96.00;;;3.44;60.63;96879.50;5083529;28;20511;-55
2022/12/19 07:41:01;;;;;;;35.13;17.97;;;3.70;96.20;;;3.43;59.68;96880.38;5079979;28;20469;-56
2022/12/19 07:43:28;;;;;;;32.77;16.77;;;3.70;95.70;;;3.39;60.85;96883.97;5085146;28;20478;-57
2022/12/19 07:45:57;;;;;;;30.20;17.57;;;3.70;95.90;;;3.39;60.66;96889.16;5079655;28;20465;-54
2022/12/19 07:48:24;;;;;;;37.73;16.47;;;3.60;96.50;;;3.43;60.70;96889.94;5080214;28;20454;-58
2022/12/19 07:50:52;;;;;;;30.43;17.23;;;3.70;96.40;;;3.43;60.69;96895.13;5081131;28;20482;-58
2022/12/19 07:53:19;;;;;;;27.43;15.10;;;3.70;96.40;;;3.45;60.53;96903.75;5082041;28;20548;-55
2022/12/19 07:55:50;;;;;;;37.67;17.03;;;3.70;96.40;;;3.45;60.04;96907.19;5080966;28;20466;-55
2022/12/19 07:58:17;;;;;;;33.47;17.20;;;3.70;96.30;;;3.46;60.72;96916.69;5082236;28;20926;-57
2022/12/19 08:00:44;;;;;;;35.70;18.17;;;3.70;96.30;;;3.46;60.79;96916.69;5081310;28;20513;-58
2022/12/19 08:03:13;;;;;;;34.20;16.37;;;3.70;96.40;;;3.47;60.90;96923.63;5080427;28;20467;-59
2022/12/19 08:05:40;;;;;;;33.80;16.40;;;3.70;96.50;;;3.49;60.02;96914.00;5081509;28;20873;-56
2022/12/19 08:08:08;;;;;;;34.07;15.40;;;3.70;96.10;;;3.43;60.00;96905.53;5079138;28;20465;-55
2022/12/19 08:10:36;;;;;;;34.77;17.53;;;3.70;95.90;;;3.40;60.91;96911.69;5081441;28;20474;-55
2022/12/19 08:13:03;;;;;;;30.00;15.43;;;3.70;96.10;;;3.38;60.11;96916.94;5081029;28;20670;-57
2022/12/19 08:15:30;;;;;;;29.13;16.10;;;3.70;96.20;;;3.38;61.16;96921.28;5081885;28;20480;-58
2022/12/19 08:17:57;;;;;;;31.03;15.63;;;3.60;96.50;;;3.41;61.44;96929.00;5079396;28;20501;-58
2022/12/19 08:20:26;;;;;;;35.43;17.90;;;3.70;96.70;;;3.45;61.46;96916.75;5084781;28;20553;-58
2022/12/19 08:22:53;;;;;;;39.60;16.00;;;3.70;96.80;;;3.50;61.45;96915.72;5083612;28;20554;-58
2022/12/19 08:25:21;;;;;;;38.00;17.57;;;3.70;96.70;;;3.53;61.15;96920.84;5082154;28;20469;-57
2022/12/19 08:27:48;;;;;;;33.70;15.77;;;3.80;96.90;;;3.58;61.20;96921.53;5080512;28;20449;-56
2022/12/19 08:30:16;;;;;;;32.80;18.27;;;3.80;96.90;;;3.63;60.90;96912.75;5082111;28;20474;-58
2022/12/19 08:32:44;;;;;;;40.07;18.50;;;3.90;96.90;;;3.68;61.57;96916.91;5078849;28;20450;-58
2022/12/19 08:35:11;;;;;;;35.73;17.97;;;3.90;96.90;;;3.74;61.26;96915.88;5081586;28;20548;-56
2022/12/19 08:37:40;;;;;;;34.67;19.57;;;3.90;96.80;;;3.79;61.45;96921.78;5079117;28;20964;-59
2022/12/19 08:40:09;;;;;;;35.60;18.93;;;4.00;96.90;;;3.84;60.93;96927.72;5081481;28;20501;-57
2022/12/19 08:42:37;;;;;;;34.87;18.13;;;4.00;96.80;;;3.87;61.06;96922.41;5078897;28;20451;-55
2022/12/19 08:45:06;;;;;;;35.53;18.57;;;4.10;97.10;;;3.91;60.79;96921.38;5082100;28;20553;-55
2022/12/19 08:47:33;;;;;;;34.30;19.80;;;4.10;96.60;;;3.96;60.88;96913.44;5075187;28;20927;-57
2022/12/19 08:50:00;;;;;;;36.50;19.47;;;4.20;96.60;;;3.98;60.58;96903.81;5081703;28;20461;-55
2022/12/19 08:52:27;;;;;;;38.83;19.27;;;4.20;96.40;;;4.00;60.76;96911.56;5078921;28;20446;-58
2022/12/19 08:54:56;;;;;;;39.90;20.00;;;4.20;96.40;;;3.99;60.56;96902.09;5082354;28;20840;-58
2022/12/19 08:57:24;;;;;;;44.03;21.10;;;4.20;96.30;;;3.99;60.35;96899.47;5076764;28;20575;-58
2022/12/19 08:59:51;;;;;;;46.37;20.30;;;4.20;96.30;;;3.99;60.33;96900.31;5078133;28;20478;-58
2022/12/19 09:02:18;;;;;;;47.10;20.43;;;4.20;96.20;;;4.01;60.53;96902.88;5081629;28;20453;-57
2022/12/19 09:04:45;;;;;;;33.17;19.60;;;4.20;96.20;;;4.02;60.40;96901.97;5078347;28;20482;-56
2022/12/19 09:07:13;;;;;;;36.07;19.53;;;4.30;96.30;;;4.04;60.42;96901.00;5081797;28;20458;-59
2022/12/19 09:09:40;;;;;;;38.40;19.43;;;4.30;96.50;;;4.09;60.47;96891.31;5077695;28;20532;-56
2022/12/19 09:12:09;;;;;;;40.80;21.53;;;4.30;96.30;;;4.09;60.07;96886.13;5081978;28;20452;-54
2022/12/19 09:14:36;;;;;;;36.60;21.57;;;4.30;96.10;;;4.09;60.21;96880.03;5078315;28;20676;-57
2022/12/19 09:17:04;;;;;;;36.80;20.27;;;4.30;96.10;;;4.11;60.54;96875.66;5082163;28;20486;-56
2022/12/19 09:19:31;;;;;;;51.37;23.17;;;4.40;96.50;;;4.13;60.40;96877.28;5077984;28;20948;-56
2022/12/19 09:21:59;;;;;;;39.70;21.10;;;4.40;96.40;;;4.16;60.08;96876.34;5082757;28;20457;-58
2022/12/19 09:24:26;;;;;;;50.83;24.80;;;4.40;95.90;;;4.17;60.12;96867.63;5080001;28;20471;-58
2022/12/19 09:26:54;;;;;;;49.63;22.43;;;4.40;96.10;;;4.21;60.32;96865.75;5082086;28;20529;-55
2022/12/19 09:29:22;;;;;;;52.67;25.20;;;4.40;96.30;;;4.26;60.62;96862.13;5077918;28;20558;-54
2022/12/19 09:31:50;;;;;;;50.90;26.37;;;4.50;96.50;;;4.29;59.46;96853.31;5080220;28;20450;-55
2022/12/19 09:34:17;;;;;;;50.57;26.17;;;4.50;95.70;;;4.29;59.92;96851.59;5078060;28;20447;-53
2022/12/19 09:36:45;;;;;;;61.57;28.70;;;4.50;95.90;;;4.28;59.76;96847.28;5081433;28;20589;-58
2022/12/19 09:39:12;;;;;;;53.27;26.90;;;4.50;95.80;;;4.29;60.09;96851.59;5077074;28;20512;-57
2022/12/19 09:42:01;;;;;;;54.17;28.20;;;4.50;96.00;;;4.29;60.16;96841.16;5081341;28;20541;-57
2022/12/19 09:44:42;;;;;;;47.40;26.47;;;4.50;96.10;;;4.33;60.05;96846.28;5076589;28;20473;-57
2022/12/19 09:47:13;;;;;;;58.60;30.20;;;4.60;96.10;;;4.39;61.99;96841.69;5075708;28;20441;-57
2022/12/19 09:49:42;;;;;;;60.60;29.40;;;4.60;97.40;;;4.48;61.37;96840.53;5079505;28;20474;-53
2022/12/19 09:52:13;;;;;;;63.13;28.17;;;4.60;97.30;;;4.53;61.03;96836.00;5073474;28;20450;-56
2022/12/19 09:54:43;;;;;;;68.17;30.47;;;4.70;96.90;;;4.58;60.71;96835.84;5080288;28;20466;-58
2022/12/19 09:57:13;;;;;;;58.37;29.60;;;4.80;96.70;;;4.61;60.47;96823.53;5077106;28;20497;-55
2022/12/19 09:59:44;;;;;;;56.03;26.40;;;4.80;96.50;;;4.64;60.42;96825.19;5077538;28;20671;-58
2022/12/19 10:02:31;;;;;;;50.57;27.67;;;4.80;96.30;;;4.63;59.55;96818.28;5077155;28;20468;-55
2022/12/19 10:05:05;;;;;;;49.70;24.80;;;4.80;95.80;;;4.64;60.07;96831.25;5072064;28;20478;-57
2022/12/19 10:07:32;;;;;;;55.53;28.40;;;4.90;96.00;;;4.67;60.44;96822.47;5079470;28;20454;-56
2022/12/19 10:10:00;;;;;;;54.53;25.60;;;4.90;96.50;;;4.74;60.11;96817.88;5076683;28;20489;-56
2022/12/19 10:12:41;;;;;;;50.60;26.50;;;4.90;96.10;;;4.77;60.04;96809.97;5080135;28;20450;-58
2022/12/19 10:15:15;;;;;;;66.40;28.37;;;5.00;96.10;;;4.87;60.33;96811.31;5077504;28;20542;-55
2022/12/19 10:18:04;;;;;;;58.87;28.37;;;5.00;96.50;;;5.10;59.55;96807.03;5072074;28;21020;-58
2022/12/19 10:20:34;;;;;;;52.10;27.30;;;5.20;96.10;;;5.41;58.89;96805.81;5083176;28;20527;-58
2022/12/19 10:23:13;;;;;;;52.43;26.60;;;5.50;95.50;;;5.66;58.97;96790.03;5080468;28;20446;-57
2022/12/19 10:25:51;;;;;;;51.93;25.27;;;5.70;95.70;;;5.81;58.45;96785.94;5076874;28;21039;-58
2022/12/19 10:28:31;;;;;;;44.30;22.40;;;5.80;95.70;;;5.89;58.28;96776.88;5080410;28;20437;-55
2022/12/19 10:31:07;;;;;;;44.57;21.70;;;6.00;95.40;;;5.93;58.32;96778.47;5071006;28;20463;-56
2022/12/19 10:33:38;;;;;;;34.87;19.20;;;6.10;95.20;;;5.98;58.33;96782.66;5079167;28;20453;-55